sensor_id;sensor_type;location;lat;lon;timestamp;pressure;altitude;pressure_sealevel;temperature;humidity
15382;BME280;7789;51.364;12.358;2023-02-10T00:01:01;102087.63;;;0.46;82.05
15382;BME280;7789;51.364;12.358;2023-02-10T00:06:06;102101.41;;;0.43;81.96
15382;BME280;7789;51.364;12.358;2023-02-10T00:11:18;102102.22;;;0.42;82.44
15382;BME280;7789;51.364;12.358;2023-02-10T00:16:45;102109.94;;;0.42;82.14
15382;BME280;7789;51.364;12.358;2023-02-10T00:21:51;102101.41;;;0.40;82.33
15382;BME280;7789;51.364;12.358;2023-02-10T00:26:57;102106.56;;;0.40;82.24
15382;BME280;7789;51.364;12.358;2023-02-10T00:32:05;102107.25;;;0.53;82.31
15382;BME280;7789;51.364;12.358;2023-02-10T00:37:12;102111.28;;;0.72;81.75
15382;BME280;7789;51.364;12.358;2023-02-10T00:42:20;102109.34;;;0.87;81.28
15382;BME280;7789;51.364;12.358;2023-02-10T00:47:23;102109.16;;;0.99;80.58
15382;BME280;7789;51.364;12.358;2023-02-10T00:52:30;102121.88;;;1.10;79.93
15382;BME280;7789;51.364;12.358;2023-02-10T00:57:40;102107.88;;;1.26;80.26
15382;BME280;7789;51.364;12.358;2023-02-10T01:02:49;102117.13;;;1.37;80.29
15382;BME280;7789;51.364;12.358;2023-02-10T01:07:54;102114.38;;;1.48;79.96
15382;BME280;7789;51.364;12.358;2023-02-10T01:13:10;102110.78;;;1.56;79.73
15382;BME280;7789;51.364;12.358;2023-02-10T01:18:27;102104.69;;;1.63;79.31
15382;BME280;7789;51.364;12.358;2023-02-10T01:23:37;102116.50;;;1.73;79.10
15382;BME280;7789;51.364;12.358;2023-02-10T01:28:43;102106.94;;;1.81;78.80
15382;BME280;7789;51.364;12.358;2023-02-10T01:33:50;102111.88;;;1.91;78.61
15382;BME280;7789;51.364;12.358;2023-02-10T01:38:55;102118.59;;;1.98;78.36
15382;BME280;7789;51.364;12.358;2023-02-10T01:44:04;102115.06;;;2.04;77.75
15382;BME280;7789;51.364;12.358;2023-02-10T01:49:16;102110.59;;;2.12;77.42
15382;BME280;7789;51.364;12.358;2023-02-10T01:54:32;102117.41;;;2.16;77.85
15382;BME280;7789;51.364;12.358;2023-02-10T01:59:41;102114.72;;;2.20;77.40
15382;BME280;7789;51.364;12.358;2023-02-10T02:04:49;102105.28;;;2.21;77.42
15382;BME280;7789;51.364;12.358;2023-02-10T02:09:56;102102.53;;;2.28;77.20
15382;BME280;7789;51.364;12.358;2023-02-10T02:15:12;102107.56;;;2.34;77.36
15382;BME280;7789;51.364;12.358;2023-02-10T02:26:09;102123.72;;;2.44;76.88
15382;BME280;7789;51.364;12.358;2023-02-10T02:31:47;102118.44;;;2.50;77.50
15382;BME280;7789;51.364;12.358;2023-02-10T02:36:57;102120.09;;;2.52;77.61
15382;BME280;7789;51.364;12.358;2023-02-10T02:42:20;102124.34;;;2.55;78.00
15382;BME280;7789;51.364;12.358;2023-02-10T02:47:40;102120.78;;;2.60;77.98
15382;BME280;7789;51.364;12.358;2023-02-10T02:52:58;102115.56;;;2.63;78.17
15382;BME280;7789;51.364;12.358;2023-02-10T02:58:12;102119.81;;;2.66;78.49
15382;BME280;7789;51.364;12.358;2023-02-10T03:03:30;102127.50;;;2.67;78.22
15382;BME280;7789;51.364;12.358;2023-02-10T03:08:39;102132.66;;;2.69;78.42
15382;BME280;7789;51.364;12.358;2023-02-10T03:13:44;102129.13;;;2.73;78.45
15382;BME280;7789;51.364;12.358;2023-02-10T03:18:54;102133.47;;;2.71;77.58
15382;BME280;7789;51.364;12.358;2023-02-10T03:24:01;102136.78;;;2.76;78.39
15382;BME280;7789;51.364;12.358;2023-02-10T03:29:06;102147.84;;;2.81;77.68
15382;BME280;7789;51.364;12.358;2023-02-10T03:34:12;102146.84;;;2.88;78.12
15382;BME280;7789;51.364;12.358;2023-02-10T03:39:17;102142.53;;;2.88;78.17
15382;BME280;7789;51.364;12.358;2023-02-10T03:44:30;102145.06;;;2.91;77.95
15382;BME280;7789;51.364;12.358;2023-02-10T03:49:36;102158.78;;;2.93;77.77
15382;BME280;7789;51.364;12.358;2023-02-10T03:54:41;102171.66;;;2.95;77.57
15382;BME280;7789;51.364;12.358;2023-02-10T03:59:45;102178.50;;;2.96;77.69
15382;BME280;7789;51.364;12.358;2023-02-10T04:04:51;102187.06;;;2.98;77.83
15382;BME280;7789;51.364;12.358;2023-02-10T04:09:55;102192.16;;;3.02;77.83
15382;BME280;7789;51.364;12.358;2023-02-10T04:15:01;102191.31;;;3.02;77.58
15382;BME280;7789;51.364;12.358;2023-02-10T04:20:09;102196.47;;;3.02;77.69
15382;BME280;7789;51.364;12.358;2023-02-10T04:25:23;102197.31;;;3.02;77.55
15382;BME280;7789;51.364;12.358;2023-02-10T04:30:29;102197.31;;;3.02;78.14
15382;BME280;7789;51.364;12.358;2023-02-10T04:35:46;102205.09;;;3.01;78.21
15382;BME280;7789;51.364;12.358;2023-02-10T04:40:51;102196.56;;;2.99;78.38
15382;BME280;7789;51.364;12.358;2023-02-10T04:46:06;102203.28;;;3.04;79.08
15382;BME280;7789;51.364;12.358;2023-02-10T04:51:16;102194.72;;;3.04;78.87
15382;BME280;7789;51.364;12.358;2023-02-10T04:56:29;102192.06;;;3.07;78.77
15382;BME280;7789;51.364;12.358;2023-02-10T05:01:42;102206.75;;;3.03;79.25
15382;BME280;7789;51.364;12.358;2023-02-10T05:06:53;102204.09;;;3.08;79.66
15382;BME280;7789;51.364;12.358;2023-02-10T05:12:07;102205.84;;;3.06;80.36
15382;BME280;7789;51.364;12.358;2023-02-10T05:17:20;102221.25;;;3.10;79.99
15382;BME280;7789;51.364;12.358;2023-02-10T05:22:27;102222.88;;;3.14;80.52
15382;BME280;7789;51.364;12.358;2023-02-10T05:27:34;102223.72;;;3.15;80.50
15382;BME280;7789;51.364;12.358;2023-02-10T05:32:49;102223.78;;;3.13;81.17
15382;BME280;7789;51.364;12.358;2023-02-10T05:38:21;102237.47;;;3.17;82.52
15382;BME280;7789;51.364;12.358;2023-02-10T05:43:47;102246.97;;;3.15;82.07
15382;BME280;7789;51.364;12.358;2023-02-10T05:49:00;102252.97;;;3.17;82.24
15382;BME280;7789;51.364;12.358;2023-02-10T05:54:13;102259.78;;;3.21;82.33
15382;BME280;7789;51.364;12.358;2023-02-10T05:59:28;102246.78;;;3.24;82.70
15382;BME280;7789;51.364;12.358;2023-02-10T06:04:44;102258.00;;;3.23;83.23
15382;BME280;7789;51.364;12.358;2023-02-10T06:09:52;102253.72;;;3.22;83.51
15382;BME280;7789;51.364;12.358;2023-02-10T06:15:02;102256.38;;;3.19;83.57
15382;BME280;7789;51.364;12.358;2023-02-10T06:20:11;102252.84;;;3.23;83.92
15382;BME280;7789;51.364;12.358;2023-02-10T06:25:20;102262.25;;;3.25;84.43
15382;BME280;7789;51.364;12.358;2023-02-10T06:30:24;102267.31;;;3.30;84.46
15382;BME280;7789;51.364;12.358;2023-02-10T06:35:43;102270.66;;;3.35;85.31
15382;BME280;7789;51.364;12.358;2023-02-10T06:40:49;102267.91;;;3.42;85.03
15382;BME280;7789;51.364;12.358;2023-02-10T06:45:57;102262.63;;;3.47;85.12
15382;BME280;7789;51.364;12.358;2023-02-10T06:51:17;102273.69;;;3.53;85.43
15382;BME280;7789;51.364;12.358;2023-02-10T06:56:26;102279.66;;;3.55;85.25
15382;BME280;7789;51.364;12.358;2023-02-10T07:01:30;102286.53;;;3.56;86.44
15382;BME280;7789;51.364;12.358;2023-02-10T07:06:35;102302.72;;;3.64;85.75
15382;BME280;7789;51.364;12.358;2023-02-10T07:11:44;102300.06;;;3.67;86.72
15382;BME280;7789;51.364;12.358;2023-02-10T07:16:49;102310.41;;;3.68;86.58
15382;BME280;7789;51.364;12.358;2023-02-10T07:21:53;102318.06;;;3.71;86.91
15382;BME280;7789;51.364;12.358;2023-02-10T07:27:00;102315.41;;;3.74;87.13
15382;BME280;7789;51.364;12.358;2023-02-10T07:32:07;102305.88;;;3.76;87.07
15382;BME280;7789;51.364;12.358;2023-02-10T07:37:14;102316.06;;;3.82;87.58
15382;BME280;7789;51.364;12.358;2023-02-10T07:42:20;102322.00;;;3.87;87.80
15382;BME280;7789;51.364;12.358;2023-02-10T07:47:24;102315.97;;;3.87;87.75
15382;BME280;7789;51.364;12.358;2023-02-10T07:52:30;102309.78;;;3.94;87.90
15382;BME280;7789;51.364;12.358;2023-02-10T07:57:41;102325.31;;;3.94;88.18
15382;BME280;7789;51.364;12.358;2023-02-10T08:02:47;102320.91;;;3.97;89.06
15382;BME280;7789;51.364;12.358;2023-02-10T08:07:51;102330.31;;;4.01;89.25
15382;BME280;7789;51.364;12.358;2023-02-10T08:12:57;102349.06;;;4.09;90.02
15382;BME280;7789;51.364;12.358;2023-02-10T08:18:08;102346.34;;;4.15;89.40
15382;BME280;7789;51.364;12.358;2023-02-10T08:23:17;102351.31;;;4.24;90.12
15382;BME280;7789;51.364;12.358;2023-02-10T08:28:27;102354.59;;;4.31;90.17
15382;BME280;7789;51.364;12.358;2023-02-10T08:33:34;102342.31;;;4.39;90.20
15382;BME280;7789;51.364;12.358;2023-02-10T08:38:51;102334.44;;;4.42;90.30
15382;BME280;7789;51.364;12.358;2023-02-10T08:44:10;102343.81;;;4.47;90.07
15382;BME280;7789;51.364;12.358;2023-02-10T08:49:17;102337.53;;;4.57;90.09
15382;BME280;7789;51.364;12.358;2023-02-10T08:54:21;102334.56;;;4.71;89.66
15382;BME280;7789;51.364;12.358;2023-02-10T08:59:33;102346.00;;;4.96;89.67
15382;BME280;7789;51.364;12.358;2023-02-10T09:04:43;102336.06;;;5.10;89.20
15382;BME280;7789;51.364;12.358;2023-02-10T09:10:08;102342.72;;;5.20;88.65
15382;BME280;7789;51.364;12.358;2023-02-10T09:15:26;102346.69;;;5.31;88.31
15382;BME280;7789;51.364;12.358;2023-02-10T09:20:51;102354.25;;;5.38;87.83
15382;BME280;7789;51.364;12.358;2023-02-10T09:25:58;102357.06;;;5.60;87.34
15382;BME280;7789;51.364;12.358;2023-02-10T09:31:07;102356.47;;;5.81;86.69
15382;BME280;7789;51.364;12.358;2023-02-10T09:36:19;102356.94;;;5.93;85.66
15382;BME280;7789;51.364;12.358;2023-02-10T09:41:40;102366.75;;;6.11;85.08
15382;BME280;7789;51.364;12.358;2023-02-10T09:47:08;102356.03;;;6.22;83.84
15382;BME280;7789;51.364;12.358;2023-02-10T09:52:23;102351.69;;;6.48;83.94
15382;BME280;7789;51.364;12.358;2023-02-10T09:57:39;102353.06;;;6.58;82.45
15382;BME280;7789;51.364;12.358;2023-02-10T10:02:50;102348.22;;;6.74;82.09
15382;BME280;7789;51.364;12.358;2023-02-10T10:08:16;102355.16;;;6.73;81.30
15382;BME280;7789;51.364;12.358;2023-02-10T10:13:24;102338.13;;;6.89;80.93
15382;BME280;7789;51.364;12.358;2023-02-10T10:18:36;102340.25;;;7.48;80.67
15382;BME280;7789;51.364;12.358;2023-02-10T10:24:01;102345.09;;;7.80;78.24
15382;BME280;7789;51.364;12.358;2023-02-10T10:29:28;102351.72;;;7.87;76.86
15382;BME280;7789;51.364;12.358;2023-02-10T10:34:42;102347.00;;;7.97;77.69
15382;BME280;7789;51.364;12.358;2023-02-10T10:39:49;102342.00;;;7.92;76.74
15382;BME280;7789;51.364;12.358;2023-02-10T10:44:59;102348.66;;;7.99;76.55
15382;BME280;7789;51.364;12.358;2023-02-10T10:50:13;102337.94;;;8.07;75.14
15382;BME280;7789;51.364;12.358;2023-02-10T10:55:22;102335.03;;;7.93;75.42
15382;BME280;7789;51.364;12.358;2023-02-10T11:00:49;102343.13;;;7.85;75.30
15382;BME280;7789;51.364;12.358;2023-02-10T11:06:05;102338.66;;;7.89;74.93
15382;BME280;7789;51.364;12.358;2023-02-10T11:11:14;102339.34;;;8.15;74.80
15382;BME280;7789;51.364;12.358;2023-02-10T11:16:41;102327.53;;;8.28;74.80
15382;BME280;7789;51.364;12.358;2023-02-10T11:21:50;102318.38;;;8.40;74.02
15382;BME280;7789;51.364;12.358;2023-02-10T11:27:00;102312.44;;;8.56;73.77
15382;BME280;7789;51.364;12.358;2023-02-10T11:32:21;102308.22;;;8.74;73.99
15382;BME280;7789;51.364;12.358;2023-02-10T11:37:34;102315.22;;;8.92;72.87
15382;BME280;7789;51.364;12.358;2023-02-10T11:42:40;102319.88;;;8.85;72.90
15382;BME280;7789;51.364;12.358;2023-02-10T11:48:00;102314.75;;;9.02;71.47
15382;BME280;7789;51.364;12.358;2023-02-10T11:58:42;102314.38;;;9.11;71.02
15382;BME280;7789;51.364;12.358;2023-02-10T12:04:15;102309.19;;;9.10;71.42
15382;BME280;7789;51.364;12.358;2023-02-10T12:09:45;102297.00;;;9.10;71.33
15382;BME280;7789;51.364;12.358;2023-02-10T12:14:57;102297.78;;;9.12;70.89
15382;BME280;7789;51.364;12.358;2023-02-10T12:20:25;102285.03;;;9.24;70.97
15382;BME280;7789;51.364;12.358;2023-02-10T12:25:39;102288.00;;;9.17;70.35
15382;BME280;7789;51.364;12.358;2023-02-10T12:30:56;102272.34;;;9.17;70.91
15382;BME280;7789;51.364;12.358;2023-02-10T12:36:23;102271.91;;;9.26;70.24
15382;BME280;7789;51.364;12.358;2023-02-10T12:41:42;102267.25;;;9.14;69.92
15382;BME280;7789;51.364;12.358;2023-02-10T12:47:08;102265.56;;;9.13;70.56
15382;BME280;7789;51.364;12.358;2023-02-10T12:52:25;102255.38;;;9.07;70.56
15382;BME280;7789;51.364;12.358;2023-02-10T12:57:38;102261.88;;;8.99;70.24
15382;BME280;7789;51.364;12.358;2023-02-10T13:02:46;102263.06;;;8.92;70.99
15382;BME280;7789;51.364;12.358;2023-02-10T13:07:59;102254.72;;;8.84;70.73
15382;BME280;7789;51.364;12.358;2023-02-10T13:13:16;102251.19;;;8.85;70.40
15382;BME280;7789;51.364;12.358;2023-02-10T13:18:23;102254.66;;;8.85;70.78
15382;BME280;7789;51.364;12.358;2023-02-10T13:23:37;102248.56;;;9.05;71.10
15382;BME280;7789;51.364;12.358;2023-02-10T13:28:54;102248.56;;;9.23;70.29
15382;BME280;7789;51.364;12.358;2023-02-10T13:34:11;102250.66;;;9.33;70.29
15382;BME280;7789;51.364;12.358;2023-02-10T13:39:20;102250.53;;;9.18;70.04
15382;BME280;7789;51.364;12.358;2023-02-10T13:45:06;102256.16;;;9.09;70.53
15382;BME280;7789;51.364;12.358;2023-02-10T13:50:26;102262.88;;;8.96;70.64
15382;BME280;7789;51.364;12.358;2023-02-10T13:55:41;102253.13;;;8.81;70.47
15382;BME280;7789;51.364;12.358;2023-02-10T14:00:48;102254.09;;;8.79;70.70
15382;BME280;7789;51.364;12.358;2023-02-10T14:05:56;102263.03;;;8.73;70.90
15382;BME280;7789;51.364;12.358;2023-02-10T14:11:06;102250.66;;;8.58;70.83
15382;BME280;7789;51.364;12.358;2023-02-10T14:16:37;102244.88;;;8.52;70.80
15382;BME280;7789;51.364;12.358;2023-02-10T14:21:45;102246.97;;;8.44;71.10
15382;BME280;7789;51.364;12.358;2023-02-10T14:27:01;102244.41;;;8.42;71.24
15382;BME280;7789;51.364;12.358;2023-02-10T14:32:13;102235.38;;;8.31;71.70
15382;BME280;7789;51.364;12.358;2023-02-10T14:37:26;102229.56;;;8.24;72.08
15382;BME280;7789;51.364;12.358;2023-02-10T14:42:33;102224.63;;;8.17;72.61
15382;BME280;7789;51.364;12.358;2023-02-10T14:47:43;102210.06;;;8.13;72.82
15382;BME280;7789;51.364;12.358;2023-02-10T14:52:51;102209.09;;;8.15;72.94
15382;BME280;7789;51.364;12.358;2023-02-10T14:58:06;102205.34;;;8.22;72.60
15382;BME280;7789;51.364;12.358;2023-02-10T15:03:17;102209.22;;;8.12;73.22
15382;BME280;7789;51.364;12.358;2023-02-10T15:08:25;102216.53;;;7.83;73.39
15382;BME280;7789;51.364;12.358;2023-02-10T15:13:40;102206.03;;;7.64;73.17
15382;BME280;7789;51.364;12.358;2023-02-10T15:18:48;102214.47;;;7.49;73.35
15382;BME280;7789;51.364;12.358;2023-02-10T15:23:58;102207.84;;;7.41;74.31
15382;BME280;7789;51.364;12.358;2023-02-10T15:29:10;102212.56;;;7.31;74.79
15382;BME280;7789;51.364;12.358;2023-02-10T15:34:18;102207.78;;;7.21;75.57
15382;BME280;7789;51.364;12.358;2023-02-10T15:39:28;102218.47;;;7.14;75.08
15382;BME280;7789;51.364;12.358;2023-02-10T15:44:37;102203.28;;;7.03;75.75
15382;BME280;7789;51.364;12.358;2023-02-10T15:49:48;102209.69;;;6.95;75.65
15382;BME280;7789;51.364;12.358;2023-02-10T15:54:59;102204.81;;;6.86;76.59
15382;BME280;7789;51.364;12.358;2023-02-10T16:00:16;102209.59;;;6.75;77.02
15382;BME280;7789;51.364;12.358;2023-02-10T16:05:25;102210.00;;;6.63;77.56
15382;BME280;7789;51.364;12.358;2023-02-10T16:10:30;102207.72;;;6.54;77.84
15382;BME280;7789;51.364;12.358;2023-02-10T16:15:37;102203.81;;;6.42;78.07
15382;BME280;7789;51.364;12.358;2023-02-10T16:20:54;102211.97;;;6.33;77.65
15382;BME280;7789;51.364;12.358;2023-02-10T16:26:05;102200.19;;;6.23;78.36
15382;BME280;7789;51.364;12.358;2023-02-10T16:31:10;102206.53;;;6.15;78.14
15382;BME280;7789;51.364;12.358;2023-02-10T16:36:21;102200.03;;;6.03;78.16
15382;BME280;7789;51.364;12.358;2023-02-10T16:41:27;102199.41;;;5.95;77.56
15382;BME280;7789;51.364;12.358;2023-02-10T16:46:31;102189.13;;;5.92;78.40
15382;BME280;7789;51.364;12.358;2023-02-10T16:51:39;102187.56;;;5.88;78.46
15382;BME280;7789;51.364;12.358;2023-02-10T16:56:50;102192.06;;;5.83;78.73
15382;BME280;7789;51.364;12.358;2023-02-10T17:01:53;102185.19;;;5.82;78.34
15382;BME280;7789;51.364;12.358;2023-02-10T17:06:59;102178.28;;;5.81;78.49
15382;BME280;7789;51.364;12.358;2023-02-10T17:12:04;102187.69;;;5.84;78.91
15382;BME280;7789;51.364;12.358;2023-02-10T17:17:15;102187.81;;;5.81;79.05
15382;BME280;7789;51.364;12.358;2023-02-10T17:22:21;102198.38;;;5.75;79.11
15382;BME280;7789;51.364;12.358;2023-02-10T17:27:27;102191.88;;;5.62;79.35
15382;BME280;7789;51.364;12.358;2023-02-10T17:32:31;102187.94;;;5.50;79.72
15382;BME280;7789;51.364;12.358;2023-02-10T17:37:36;102196.94;;;5.39;79.98
15382;BME280;7789;51.364;12.358;2023-02-10T17:42:44;102205.91;;;5.29;80.25
15382;BME280;7789;51.364;12.358;2023-02-10T17:47:56;102211.41;;;5.19;80.47
15382;BME280;7789;51.364;12.358;2023-02-10T17:53:04;102205.66;;;5.09;81.26
15382;BME280;7789;51.364;12.358;2023-02-10T17:58:12;102202.50;;;5.00;81.43
15382;BME280;7789;51.364;12.358;2023-02-10T18:03:16;102208.72;;;4.93;81.85
15382;BME280;7789;51.364;12.358;2023-02-10T18:08:22;102223.69;;;4.83;82.41
15382;BME280;7789;51.364;12.358;2023-02-10T18:13:28;102217.03;;;4.75;82.52
15382;BME280;7789;51.364;12.358;2023-02-10T18:18:35;102225.91;;;4.66;82.77
15382;BME280;7789;51.364;12.358;2023-02-10T18:23:42;102229.59;;;4.58;83.24
15382;BME280;7789;51.364;12.358;2023-02-10T18:28:52;102242.72;;;4.52;84.26
15382;BME280;7789;51.364;12.358;2023-02-10T18:33:57;102226.63;;;4.41;83.99
15382;BME280;7789;51.364;12.358;2023-02-10T18:39:12;102224.28;;;4.32;85.26
15382;BME280;7789;51.364;12.358;2023-02-10T18:44:19;102211.44;;;4.29;84.81
15382;BME280;7789;51.364;12.358;2023-02-10T18:49:25;102205.16;;;4.37;85.38
15382;BME280;7789;51.364;12.358;2023-02-10T18:54:36;102186.84;;;4.45;85.39
15382;BME280;7789;51.364;12.358;2023-02-10T18:59:46;102184.94;;;4.51;85.01
15382;BME280;7789;51.364;12.358;2023-02-10T19:04:50;102182.16;;;4.57;85.37
15382;BME280;7789;51.364;12.358;2023-02-10T19:10:15;102180.28;;;4.62;85.74
15382;BME280;7789;51.364;12.358;2023-02-10T19:15:36;102172.56;;;4.61;85.73
15382;BME280;7789;51.364;12.358;2023-02-10T19:20:43;102174.31;;;4.60;85.64
15382;BME280;7789;51.364;12.358;2023-02-10T19:25:52;102163.97;;;4.59;85.91
15382;BME280;7789;51.364;12.358;2023-02-10T19:31:11;102170.94;;;4.57;85.73
15382;BME280;7789;51.364;12.358;2023-02-10T19:36:22;102172.00;;;4.51;85.37
15382;BME280;7789;51.364;12.358;2023-02-10T19:41:32;102166.84;;;4.50;85.58
15382;BME280;7789;51.364;12.358;2023-02-10T19:46:40;102162.56;;;4.49;85.00
15382;BME280;7789;51.364;12.358;2023-02-10T19:51:47;102159.06;;;4.50;84.90
15382;BME280;7789;51.364;12.358;2023-02-10T19:56:54;102160.78;;;4.49;84.90
15382;BME280;7789;51.364;12.358;2023-02-10T20:01:57;102166.81;;;4.51;84.25
15382;BME280;7789;51.364;12.358;2023-02-10T20:07:05;102161.63;;;4.51;84.21
15382;BME280;7789;51.364;12.358;2023-02-10T20:12:11;102157.31;;;4.50;84.35
15382;BME280;7789;51.364;12.358;2023-02-10T20:17:18;102159.03;;;4.51;83.91
15382;BME280;7789;51.364;12.358;2023-02-10T20:22:30;102154.59;;;4.55;83.43
15382;BME280;7789;51.364;12.358;2023-02-10T20:27:42;102161.53;;;4.54;83.58
15382;BME280;7789;51.364;12.358;2023-02-10T20:32:53;102157.28;;;4.52;83.30
15382;BME280;7789;51.364;12.358;2023-02-10T20:37:57;102142.63;;;4.52;83.23
15382;BME280;7789;51.364;12.358;2023-02-10T20:43:04;102147.06;;;4.47;82.58
15382;BME280;7789;51.364;12.358;2023-02-10T20:48:17;102150.53;;;4.46;83.09
15382;BME280;7789;51.364;12.358;2023-02-10T20:53:21;102150.44;;;4.49;82.93
15382;BME280;7789;51.364;12.358;2023-02-10T20:58:38;102149.63;;;4.47;82.27
15382;BME280;7789;51.364;12.358;2023-02-10T21:03:45;102143.72;;;4.44;82.63
15382;BME280;7789;51.364;12.358;2023-02-10T21:08:55;102151.44;;;4.45;82.76
15382;BME280;7789;51.364;12.358;2023-02-10T21:14:10;102130.94;;;4.38;81.83
15382;BME280;7789;51.364;12.358;2023-02-10T21:19:15;102136.22;;;4.33;81.77
15382;BME280;7789;51.364;12.358;2023-02-10T21:24:28;102135.50;;;4.30;82.64
15382;BME280;7789;51.364;12.358;2023-02-10T21:29:34;102127.88;;;4.24;82.30
15382;BME280;7789;51.364;12.358;2023-02-10T21:34:45;102134.16;;;4.15;82.17
15382;BME280;7789;51.364;12.358;2023-02-10T21:39:49;102123.88;;;4.14;82.99
15382;BME280;7789;51.364;12.358;2023-02-10T21:45:01;102120.56;;;4.09;82.78
15382;BME280;7789;51.364;12.358;2023-02-10T21:50:09;102121.50;;;4.05;83.68
15382;BME280;7789;51.364;12.358;2023-02-10T21:55:26;102119.06;;;4.00;83.19
15382;BME280;7789;51.364;12.358;2023-02-10T22:00:33;102106.28;;;3.94;84.26
15382;BME280;7789;51.364;12.358;2023-02-10T22:05:37;102096.13;;;3.88;84.02
15382;BME280;7789;51.364;12.358;2023-02-10T22:10:46;102091.78;;;3.89;85.28
15382;BME280;7789;51.364;12.358;2023-02-10T22:15:56;102086.41;;;3.96;85.33
15382;BME280;7789;51.364;12.358;2023-02-10T22:21:06;102079.50;;;3.97;85.61
15382;BME280;7789;51.364;12.358;2023-02-10T22:26:20;102080.41;;;3.94;85.20
15382;BME280;7789;51.364;12.358;2023-02-10T22:31:31;102068.50;;;3.89;85.83
15382;BME280;7789;51.364;12.358;2023-02-10T22:36:42;102068.59;;;3.86;85.97
15382;BME280;7789;51.364;12.358;2023-02-10T22:41:50;102059.13;;;3.85;86.57
15382;BME280;7789;51.364;12.358;2023-02-10T22:46:57;102056.59;;;3.83;86.77
15382;BME280;7789;51.364;12.358;2023-02-10T22:52:06;102051.44;;;3.83;86.44
15382;BME280;7789;51.364;12.358;2023-02-10T22:57:10;102054.84;;;3.84;86.69
15382;BME280;7789;51.364;12.358;2023-02-10T23:02:23;102052.28;;;3.82;86.55
15382;BME280;7789;51.364;12.358;2023-02-10T23:07:30;102039.50;;;3.78;87.16
15382;BME280;7789;51.364;12.358;2023-02-10T23:12:34;102030.09;;;3.75;87.90
15382;BME280;7789;51.364;12.358;2023-02-10T23:17:47;102021.53;;;3.73;87.76
15382;BME280;7789;51.364;12.358;2023-02-10T23:22:53;102022.50;;;3.69;88.29
15382;BME280;7789;51.364;12.358;2023-02-10T23:28:02;102026.78;;;3.70;88.69
15382;BME280;7789;51.364;12.358;2023-02-10T23:33:09;102020.63;;;3.74;88.72
15382;BME280;7789;51.364;12.358;2023-02-10T23:38:14;102015.22;;;3.83;88.96
15382;BME280;7789;51.364;12.358;2023-02-10T23:43:18;102001.22;;;3.90;89.03
15382;BME280;7789;51.364;12.358;2023-02-10T23:48:25;101991.50;;;3.98;88.76
15382;BME280;7789;51.364;12.358;2023-02-10T23:53:35;101986.19;;;4.03;88.85
15382;BME280;7789;51.364;12.358;2023-02-10T23:58:41;101973.91;;;4.11;89.13
